Time;durP1;ratioP1;P1;durP2;ratioP2;P2;SDS_P1;SDS_P2;PMS_P1;PMS_P2;Temp;Humidity;BMP_temperature;BMP_pressure;BME280_temperature;BME280_humidity;BME280_pressure;Samples;Min_cycle;Max_cycle;Signal;HPM_P1;HPM_P2
2022/04/15 00:00:27;;;;;;;;;9.67;9.67;;;;;19.07;49.97;101838.91;2104063;28;47820;-61
2022/04/15 00:01:28;;;;;;;;;11.33;9.33;;;;;19.07;50.29;101842.47;2094898;28;47051;-61
2022/04/15 00:02:28;;;;;;;;;11.33;11.33;;;;;19.06;49.92;101838.03;2095028;28;47951;-61
2022/04/15 00:03:30;;;;;;;;;7.67;6.00;;;;;19.05;50.02;101836.25;2104357;28;47826;-60
2022/04/15 00:04:31;;;;;;;;;9.50;7.75;;;;;19.05;49.97;101838.94;2094504;28;48461;-60
2022/04/15 00:05:41;;;;;;;;;8.67;8.67;;;;;19.05;50.24;101838.06;2086603;28;47252;-61
2022/04/15 00:06:42;;;;;;;;;10.00;9.75;;;;;19.04;50.52;101841.69;2089694;28;48095;-61
2022/04/15 00:07:42;;;;;;;;;6.00;4.00;;;;;19.03;50.50;101840.81;2101301;27;47705;-61
2022/04/15 00:08:43;;;;;;;;;8.00;8.00;;;;;19.03;50.40;101845.31;2105781;28;47776;-62
2022/04/15 00:09:44;;;;;;;;;8.67;8.67;;;;;19.02;50.57;101839.06;2105433;28;47977;-61
2022/04/15 00:10:45;;;;;;;;;9.00;9.00;;;;;19.01;50.20;101837.31;2105858;28;47449;-60
2022/04/15 00:11:45;;;;;;;;;8.75;8.25;;;;;19.01;50.15;101840.00;2105377;28;48011;-62
2022/04/15 00:12:46;;;;;;;;;7.00;7.00;;;;;19.01;50.36;101839.13;2096009;28;47357;-61
2022/04/15 00:13:47;;;;;;;;;8.00;8.00;;;;;19.02;50.30;101840.88;2101552;28;47989;-61
2022/04/15 00:14:48;;;;;;;;;7.75;7.75;;;;;19.02;50.23;101843.56;2103774;28;47812;-60
2022/04/15 00:15:48;;;;;;;;;6.00;6.00;;;;;19.02;50.04;101843.56;2105264;28;47750;-61
2022/04/15 00:16:49;;;;;;;;;6.67;6.67;;;;;19.02;50.35;101841.75;2105833;28;47834;-61
2022/04/15 00:17:50;;;;;;;;;6.75;6.75;;;;;19.01;49.96;101842.69;2105495;28;48001;-61
2022/04/15 00:18:51;;;;;;;;;7.75;7.25;;;;;19.01;50.14;101845.38;2105022;28;47740;-62
2022/04/15 00:19:51;;;;;;;;;6.00;6.00;;;;;19.02;50.17;101847.13;2105724;28;47577;-63
2022/04/15 00:20:52;;;;;;;;;7.00;7.00;;;;;19.01;50.24;101841.81;2078974;28;47474;-59
2022/04/15 00:21:53;;;;;;;;;6.25;5.50;;;;;19.01;49.86;101842.69;2080672;28;48705;-61
2022/04/15 00:22:53;;;;;;;;;7.33;7.00;;;;;19.01;50.03;101840.00;2105539;28;47629;-61
2022/04/15 00:23:56;;;;;;;;;8.00;8.00;;;;;19.00;49.97;101843.63;2105556;28;47825;-61
2022/04/15 00:24:56;;;;;;;;;7.00;6.00;;;;;19.00;49.94;101840.06;2104819;28;48046;-61
2022/04/15 00:25:58;;;;;;;;;7.00;6.33;;;;;19.00;49.91;101843.63;2105800;28;47199;-61
2022/04/15 00:26:59;;;;;;;;;7.00;5.25;;;;;19.01;49.96;101836.44;2104945;28;48007;-60
2022/04/15 00:27:59;;;;;;;;;6.67;6.67;;;;;18.99;50.21;101846.38;2104784;27;47636;-60
2022/04/15 00:29:00;;;;;;;;;7.00;7.00;;;;;18.98;49.82;101842.81;2110728;27;48089;-62
2022/04/15 00:30:01;;;;;;;;;13.33;13.33;;;;;18.98;49.75;101844.63;2105386;27;47463;-61
2022/04/15 00:31:01;;;;;;;;;10.75;10.75;;;;;18.98;49.92;101841.94;2093981;28;48294;-61
2022/04/15 00:32:02;;;;;;;;;13.33;13.33;;;;;18.97;49.89;101843.75;2103726;28;47526;-61
2022/04/15 00:33:02;;;;;;;;;13.00;11.67;;;;;18.95;49.66;101845.63;2098990;28;47286;-60
2022/04/15 00:34:03;;;;;;;;;14.67;13.33;;;;;18.95;50.23;101845.63;2103943;28;47824;-62
2022/04/15 00:35:04;;;;;;;;;16.00;14.00;;;;;18.94;49.94;101841.19;2110044;27;47722;-61
2022/04/15 00:36:06;;;;;;;;;19.40;17.80;;;;;18.93;49.77;101842.13;2097041;28;47783;-62
2022/04/15 00:37:06;;;;;;;;;21.00;19.00;;;;;18.93;49.99;101841.22;2100506;28;47287;-62
2022/04/15 00:38:07;;;;;;;;;20.75;19.00;;;;;18.92;50.04;101845.72;2109941;27;47474;-62
2022/04/15 00:39:08;;;;;;;;;14.75;14.75;;;;;18.91;50.05;101843.97;2106604;27;47875;-62
2022/04/15 00:40:10;;;;;;;;;16.67;16.67;;;;;18.92;49.91;101847.53;2111815;27;47796;-61
2022/04/15 00:41:15;;;;;;;;;19.00;18.25;;;;;18.90;49.81;101844.03;2079359;28;47724;-62
2022/04/15 00:42:16;;;;;;;;;19.25;18.50;;;;;18.90;49.89;101838.66;2081040;28;48336;-62
2022/04/15 00:43:16;;;;;;;;;20.00;19.00;;;;;18.89;50.06;101843.16;2109593;27;47512;-62
2022/04/15 00:44:17;;;;;;;;;9.00;8.33;;;;;18.88;49.93;101837.84;2107463;27;48231;-62
2022/04/15 00:45:17;;;;;;;;;14.33;12.67;;;;;18.88;50.02;101845.91;2109340;27;47338;-61
2022/04/15 00:46:18;;;;;;;;;17.67;17.33;;;;;18.88;49.84;101843.22;2111228;27;47930;-61
2022/04/15 00:47:25;;;;;;;;;16.00;16.00;;;;;18.88;50.16;101846.78;2097404;28;47686;-61
2022/04/15 00:48:27;;;;;;;;;6.20;5.40;;;;;18.86;49.85;101843.28;2100746;28;46194;-61
2022/04/15 00:49:27;;;;;;;;;14.00;13.75;;;;;18.86;49.70;101845.09;2095991;28;47290;-61
2022/04/15 00:50:35;;;;;;;;;9.67;9.67;;;;;18.85;50.29;101835.28;2096142;28;47986;-62
2022/04/15 00:51:36;;;;;;;;;14.00;12.75;;;;;18.85;50.13;101840.66;2111085;27;48105;-61
2022/04/15 00:52:39;;;;;;;;;13.25;12.75;;;;;18.84;50.13;101837.09;2109531;27;46356;-61
2022/04/15 00:53:42;;;;;;;;;14.75;13.75;;;;;18.83;50.00;101834.47;2107019;27;48024;-61
2022/04/15 00:54:44;;;;;;;;;12.50;12.50;;;;;18.83;49.91;101843.41;2105435;27;48205;-61
2022/04/15 00:55:48;;;;;;;;;14.50;13.50;;;;;18.81;50.27;101846.16;2108885;27;48048;-61
2022/04/15 00:56:52;;;;;;;;;14.00;14.00;;;;;18.80;50.20;101836.34;2097894;28;48239;-61
2022/04/15 00:57:56;;;;;;;;;12.25;11.25;;;;;18.79;50.21;101831.88;2103373;28;47341;-61
2022/04/15 00:59:00;;;;;;;;;12.50;12.25;;;;;18.80;50.53;101840.81;2108645;27;48269;-61
2022/04/15 01:00:01;;;;;;;;;13.50;13.50;;;;;18.78;50.34;101834.63;2107771;27;47879;-61
2022/04/15 01:01:02;;;;;;;;;10.25;10.25;;;;;18.78;50.00;101840.88;2097759;28;46078;-60
2022/04/15 01:02:04;;;;;;;;;12.00;11.00;;;;;18.77;50.10;101835.56;2098037;28;47379;-61
2022/04/15 01:03:06;;;;;;;;;12.50;10.00;;;;;18.77;50.32;101841.81;2109204;27;47959;-61
2022/04/15 01:04:07;;;;;;;;;12.00;11.75;;;;;18.75;50.24;101838.31;2110172;27;47805;-60
2022/04/15 01:05:08;;;;;;;;;12.75;12.75;;;;;18.74;50.14;101841.06;2106434;27;47846;-61
2022/04/15 01:06:11;;;;;;;;;12.00;12.00;;;;;18.73;50.41;101833.94;2110200;27;48114;-60
2022/04/15 01:07:16;;;;;;;;;12.00;11.00;;;;;18.73;50.44;101844.69;2109883;27;47922;-62
2022/04/15 01:08:21;;;;;;;;;12.75;12.75;;;;;18.71;50.34;101835.81;2105355;27;48036;-63
2022/04/15 01:09:22;;;;;;;;;13.25;13.25;;;;;18.70;50.46;101842.13;2110552;27;46954;-59
2022/04/15 01:10:25;;;;;;;;;13.00;10.75;;;;;18.69;50.45;101841.25;2109523;27;48080;-60
2022/04/15 01:11:27;;;;;;;;;12.50;11.75;;;;;18.67;50.14;101837.72;2106814;27;47770;-60
2022/04/15 01:12:29;;;;;;;;;13.25;13.00;;;;;18.65;50.56;101836.03;2101280;28;47560;-60
2022/04/15 01:13:34;;;;;;;;;13.25;11.75;;;;;18.63;50.65;101838.72;2105279;27;48052;-61
2022/04/15 01:14:36;;;;;;;;;13.00;12.75;;;;;18.61;50.63;101832.53;2104644;28;47711;-61
2022/04/15 01:15:36;;;;;;;;;11.00;10.75;;;;;18.61;50.34;101834.34;2105945;27;47765;-61
2022/04/15 01:16:37;;;;;;;;;11.33;11.33;;;;;18.59;50.78;101836.22;2110830;27;47376;-61
2022/04/15 01:17:37;;;;;;;;;13.00;12.33;;;;;18.58;50.54;101838.03;2109525;27;47406;-60
2022/04/15 01:18:39;;;;;;;;;16.33;14.00;;;;;18.57;50.56;101838.97;2104380;27;47941;-61
2022/04/15 01:19:40;;;;;;;;;17.00;14.00;;;;;18.54;50.75;101839.06;2112121;27;48120;-60
2022/04/15 01:20:42;;;;;;;;;14.25;13.00;;;;;18.53;50.86;101846.25;2104972;27;47454;-60
2022/04/15 01:21:45;;;;;;;;;18.50;18.25;;;;;18.49;50.82;101836.56;2105306;28;48296;-62
2022/04/15 01:23:16;;;;;;;;;24.80;23.80;;;;;18.49;51.05;101841.06;2111898;27;48052;-61
2022/04/15 01:24:16;;;;;;;;;22.60;22.20;;;;;18.46;50.89;101842.06;2074146;28;47421;-61
2022/04/15 01:25:18;;;;;;;;;27.75;22.75;;;;;18.47;51.15;101845.63;2070505;28;47682;-61
2022/04/15 01:26:18;;;;;;;;;46.60;39.80;;;;;18.46;51.08;101844.75;2069979;28;47614;-61
2022/04/15 01:27:25;;;;;;;;;21.50;19.75;;;;;18.46;50.97;101843.88;2075247;28;47550;-61
2022/04/15 01:28:26;;;;;;;;;31.60;29.80;;;;;18.47;51.15;101842.94;2072340;28;47736;-61
2022/04/15 01:29:27;;;;;;;;;31.50;29.50;;;;;18.47;51.15;101840.25;2054878;28;47634;-61
2022/04/15 01:30:27;;;;;;;;;29.80;28.40;;;;;18.47;51.24;101848.31;2058028;28;47476;-61
2022/04/15 01:31:31;;;;;;;;;29.50;29.00;;;;;18.48;51.15;101842.00;2071104;28;47761;-61
2022/04/15 01:32:32;;;;;;;;;22.60;19.40;;;;;18.47;51.00;101846.50;2070620;28;47540;-61
2022/04/15 01:33:32;;;;;;;;;17.00;16.25;;;;;18.48;51.08;101842.88;2070726;28;47949;-62
2022/04/15 01:34:32;;;;;;;;;14.00;12.33;;;;;18.47;51.22;101841.13;2070465;28;47505;-61
2022/04/15 01:35:36;;;;;;;;;15.33;15.33;;;;;18.47;50.92;101849.19;2070378;28;47429;-60
2022/04/15 01:36:36;;;;;;;;;10.75;10.75;;;;;18.47;51.26;101849.19;2070503;28;47710;-61
2022/04/15 01:37:38;;;;;;;;;12.33;12.33;;;;;18.48;50.91;101842.00;2070805;28;47869;-62
2022/04/15 01:38:39;;;;;;;;;12.00;11.00;;;;;18.46;51.04;101833.13;2070858;28;47234;-61
2022/04/15 01:39:40;;;;;;;;;14.00;13.50;;;;;18.46;51.07;101838.50;2062304;28;48198;-61
2022/04/15 01:40:42;;;;;;;;;13.33;13.00;;;;;18.45;51.21;101840.31;2062077;28;47757;-62
2022/04/15 01:41:44;;;;;;;;;12.25;12.25;;;;;18.45;51.38;101842.13;2070555;28;47666;-62
2022/04/15 01:42:46;;;;;;;;;12.50;12.50;;;;;18.45;51.12;101842.13;2070410;28;48025;-62
2022/04/15 01:43:46;;;;;;;;;17.20;15.40;;;;;18.44;50.67;101843.94;2070288;28;47363;-61
2022/04/15 01:44:47;;;;;;;;;16.67;14.67;;;;;18.44;50.99;101845.75;2077464;28;48009;-60
2022/04/15 01:45:47;;;;;;;;;15.33;15.33;;;;;18.42;51.11;101843.13;2074097;28;47795;-61
2022/04/15 01:46:48;;;;;;;;;14.67;14.00;;;;;18.42;51.05;101840.44;2078753;28;47539;-62
2022/04/15 01:47:49;;;;;;;;;14.33;12.33;;;;;18.41;51.13;101844.00;2070457;28;48159;-61
2022/04/15 01:48:50;;;;;;;;;14.00;14.00;;;;;18.42;51.04;101844.88;2070792;28;48334;-61
2022/04/15 01:49:51;;;;;;;;;16.67;15.67;;;;;18.39;51.05;101851.25;2070423;28;46750;-61
2022/04/15 01:50:51;;;;;;;;;16.33;14.00;;;;;18.38;51.14;101844.13;2074461;28;47653;-61
2022/04/15 01:51:52;;;;;;;;;18.00;16.67;;;;;18.39;51.06;101848.56;2077342;28;47199;-62
2022/04/15 01:52:52;;;;;;;;;14.33;14.33;;;;;18.38;51.38;101846.81;2077687;28;47472;-62
2022/04/15 01:53:53;;;;;;;;;13.67;13.67;;;;;18.38;51.29;101845.94;2070951;28;48118;-61
2022/04/15 01:54:54;;;;;;;;;15.00;15.00;;;;;18.37;50.94;101849.56;2060818;28;47997;-60
2022/04/15 01:55:54;;;;;;;;;14.00;14.00;;;;;18.36;51.32;101854.06;2067937;28;47805;-61
2022/04/15 01:56:56;;;;;;;;;14.33;14.33;;;;;18.35;51.34;101840.69;2069546;28;47878;-62
2022/04/15 01:57:57;;;;;;;;;13.50;13.50;;;;;18.34;51.21;101842.50;2070169;28;47520;-61
2022/04/15 01:58:57;;;;;;;;;15.67;15.00;;;;;18.33;51.22;101843.44;2070525;28;47235;-61
2022/04/15 01:59:57;;;;;;;;;16.00;16.00;;;;;18.32;51.43;101843.50;2070385;28;46923;-61
2022/04/15 02:00:58;;;;;;;;;16.33;16.33;;;;;18.32;51.12;101846.19;2062067;28;47588;-62
2022/04/15 02:01:58;;;;;;;;;14.00;13.00;;;;;18.31;51.23;101844.44;2072341;28;47636;-61
2022/04/15 02:02:59;;;;;;;;;12.00;12.00;;;;;18.31;51.29;101844.44;2105353;28;47930;-61
2022/04/15 02:03:59;;;;;;;;;14.67;13.33;;;;;18.30;51.14;101842.69;2110004;27;47689;-61
2022/04/15 02:05:00;;;;;;;;;14.00;12.67;;;;;18.31;51.28;101845.31;2106746;27;47713;-61
2022/04/15 02:06:00;;;;;;;;;9.00;8.00;;;;;18.31;51.24;101839.94;2104644;28;47935;-61
2022/04/15 02:07:01;;;;;;;;;13.33;13.33;;;;;18.30;51.35;101840.88;2110007;27;47747;-61
2022/04/15 02:08:02;;;;;;;;;12.00;12.00;;;;;18.29;51.24;101840.91;2105293;27;47529;-61
2022/04/15 02:09:02;;;;;;;;;14.00;13.00;;;;;18.27;51.24;101840.94;2108417;27;47500;-62
2022/04/15 02:10:05;;;;;;;;;12.67;12.67;;;;;18.27;51.32;101843.63;2099690;28;47282;-62
2022/04/15 02:11:05;;;;;;;;;13.25;12.25;;;;;18.27;51.17;101843.63;2097067;28;47769;-61
2022/04/15 02:12:06;;;;;;;;;13.00;13.00;;;;;18.27;51.31;101845.44;2110090;27;47125;-62
2022/04/15 02:13:07;;;;;;;;;15.25;15.25;;;;;18.26;51.38;101847.25;2106888;27;47482;-61
2022/04/15 02:14:07;;;;;;;;;15.67;14.00;;;;;18.27;51.43;101840.06;2107922;27;47090;-61
2022/04/15 02:15:08;;;;;;;;;16.33;15.00;;;;;18.23;51.91;101839.31;2109854;27;47361;-61
2022/04/15 02:16:09;;;;;;;;;15.00;14.75;;;;;18.22;51.59;101849.19;2105696;27;47691;-61
2022/04/15 02:17:09;;;;;;;;;14.00;13.33;;;;;18.21;51.58;101844.75;2109681;27;47628;-61
2022/04/15 02:18:09;;;;;;;;;17.67;15.00;;;;;18.20;51.56;101842.13;2106021;27;47844;-61
2022/04/15 02:19:10;;;;;;;;;14.67;14.67;;;;;18.19;51.75;101843.94;2086339;28;47567;-61
2022/04/15 02:20:11;;;;;;;;;14.67;14.33;;;;;18.19;51.25;101849.31;2088576;28;47412;-60
2022/04/15 02:21:11;;;;;;;;;17.75;16.00;;;;;18.19;51.55;101851.13;2112167;27;47799;-61
2022/04/15 02:22:12;;;;;;;;;17.00;13.67;;;;;18.18;51.86;101844.00;2110041;27;48064;-60
2022/04/15 02:23:12;;;;;;;;;14.33;14.33;;;;;18.18;51.63;101846.69;2112665;27;47634;-61
2022/04/15 02:24:14;;;;;;;;;13.33;13.33;;;;;18.17;51.46;101845.81;2105552;27;47535;-60
2022/04/15 02:25:14;;;;;;;;;11.75;11.75;;;;;18.17;51.56;101848.47;2111604;27;47445;-61
2022/04/15 02:26:14;;;;;;;;;12.00;12.00;;;;;18.16;51.38;101848.50;2110711;27;47761;-61
2022/04/15 02:27:15;;;;;;;;;15.00;13.67;;;;;18.16;51.39;101851.19;2104492;27;47694;-61
2022/04/15 02:28:15;;;;;;;;;15.00;12.00;;;;;18.15;51.42;101847.63;2109737;27;47313;-60
2022/04/15 02:29:16;;;;;;;;;13.33;12.33;;;;;18.16;51.47;101849.38;2103581;27;48045;-61
2022/04/15 02:30:16;;;;;;;;;12.33;11.67;;;;;18.17;51.40;101853.84;2104683;28;47774;-60
2022/04/15 02:31:16;;;;;;;;;13.00;13.00;;;;;18.16;51.51;101848.50;2103239;28;48044;-61
2022/04/15 02:32:17;;;;;;;;;10.00;10.00;;;;;18.16;51.58;101851.19;2098618;28;47843;-61
2022/04/15 02:33:17;;;;;;;;;13.67;12.33;;;;;18.16;51.52;101851.19;2098722;28;47853;-61
2022/04/15 02:34:18;;;;;;;;;7.00;7.00;;;;;18.15;51.37;101846.75;2095822;28;47649;-60
2022/04/15 02:35:18;;;;;;;;;10.67;10.00;;;;;18.15;51.62;101846.75;2095606;28;47167;-61
2022/04/15 02:36:19;;;;;;;;;15.33;15.00;;;;;18.15;51.37;101844.06;2104455;28;47194;-61
2022/04/15 02:37:19;;;;;;;;;12.67;10.33;;;;;18.14;51.37;101848.56;2104383;28;47883;-60
2022/04/15 02:38:19;;;;;;;;;10.33;10.00;;;;;18.14;51.56;101853.06;2104837;28;47369;-60
2022/04/15 02:39:20;;;;;;;;;10.00;10.00;;;;;18.11;51.38;101842.44;2104350;28;47860;-61
2022/04/15 02:40:20;;;;;;;;;12.00;12.00;;;;;18.11;51.68;101850.50;2097366;28;47475;-60
2022/04/15 02:41:21;;;;;;;;;11.00;11.00;;;;;18.12;51.64;101852.25;2101488;28;47592;-61
2022/04/15 02:42:22;;;;;;;;;10.33;10.33;;;;;18.11;51.68;101847.81;2104566;28;47720;-61
2022/04/15 02:43:25;;;;;;;;;14.67;13.00;;;;;18.10;51.74;101846.06;2094956;28;47570;-60
2022/04/15 02:44:25;;;;;;;;;13.25;13.25;;;;;18.10;51.67;101846.06;2094543;28;47538;-61
2022/04/15 02:45:28;;;;;;;;;12.00;11.67;;;;;18.09;51.80;101844.31;2102359;28;48101;-61
2022/04/15 02:46:28;;;;;;;;;12.50;11.75;;;;;18.08;51.76;101851.47;2104350;28;48219;-60
2022/04/15 02:47:29;;;;;;;;;9.00;9.00;;;;;18.06;51.74;101850.66;2103991;28;47779;-61
2022/04/15 02:48:30;;;;;;;;;13.25;11.00;;;;;18.04;51.54;101847.16;2104737;28;47638;-61
2022/04/15 02:49:30;;;;;;;;;13.00;13.00;;;;;18.02;51.69;101843.63;2104716;28;47474;-61
2022/04/15 02:50:31;;;;;;;;;11.67;11.00;;;;;18.01;51.70;101855.31;2104694;28;47820;-61
2022/04/15 02:51:31;;;;;;;;;12.33;12.33;;;;;17.99;51.79;101848.22;2104205;28;47531;-61
2022/04/15 02:52:33;;;;;;;;;13.00;12.00;;;;;17.98;52.08;101854.53;2104382;28;47557;-61
2022/04/15 02:53:34;;;;;;;;;13.00;11.00;;;;;17.98;51.94;101850.03;2104628;28;47923;-61
2022/04/15 02:54:34;;;;;;;;;13.67;13.00;;;;;17.97;51.86;101848.28;2107746;27;48018;-61
2022/04/15 02:55:35;;;;;;;;;9.00;9.00;;;;;17.98;52.19;101849.16;2112524;27;47421;-62
2022/04/15 02:56:35;;;;;;;;;10.33;10.00;;;;;17.97;51.94;101850.97;2104158;28;47662;-62
2022/04/15 02:57:35;;;;;;;;;15.00;15.00;;;;;17.94;52.38;101851.97;2100856;28;45757;-61
2022/04/15 02:58:36;;;;;;;;;12.33;11.33;;;;;17.93;52.14;101854.72;2101476;28;47093;-61
2022/04/15 02:59:36;;;;;;;;;12.67;11.67;;;;;17.91;52.02;101854.75;2097789;28;48071;-61
2022/04/15 03:00:37;;;;;;;;;13.00;12.00;;;;;17.90;52.19;101860.16;2101795;28;47993;-61
2022/04/15 03:01:37;;;;;;;;;14.00;12.33;;;;;17.90;52.23;101855.66;2104636;28;47945;-61
2022/04/15 03:02:38;;;;;;;;;12.67;12.67;;;;;17.89;52.11;101858.41;2103063;28;47367;-61
2022/04/15 03:03:38;;;;;;;;;14.67;14.67;;;;;17.88;52.19;101852.16;2104508;28;48003;-62
2022/04/15 03:04:38;;;;;;;;;15.67;14.67;;;;;17.87;52.37;101862.94;2103710;28;48115;-62
2022/04/15 03:05:39;;;;;;;;;6.33;6.33;;;;;17.84;52.00;101855.88;2104718;28;47511;-62
2022/04/15 03:06:40;;;;;;;;;10.50;9.75;;;;;17.84;52.31;101858.56;2102999;28;47939;-61
2022/04/15 03:07:40;;;;;;;;;15.33;13.33;;;;;17.83;52.51;101855.94;2103280;28;47607;-62
2022/04/15 03:08:41;;;;;;;;;9.33;9.33;;;;;17.82;52.15;101849.69;2102515;28;47465;-61
2022/04/15 03:09:41;;;;;;;;;14.00;14.00;;;;;17.83;52.38;101854.13;2103079;28;47885;-61
2022/04/15 03:10:42;;;;;;;;;13.00;13.00;;;;;17.84;52.39;101855.00;2104076;28;47267;-61
2022/04/15 03:11:42;;;;;;;;;13.67;13.67;;;;;17.84;52.38;101855.88;2104115;28;47678;-62
2022/04/15 03:12:43;;;;;;;;;12.67;12.00;;;;;17.85;52.34;101856.75;2102044;28;47527;-62
2022/04/15 03:13:44;;;;;;;;;14.33;12.00;;;;;17.85;52.41;101854.06;2107307;27;47576;-62
2022/04/15 03:14:45;;;;;;;;;15.25;15.25;;;;;17.85;52.49;101849.59;2105408;27;48189;-61
2022/04/15 03:15:45;;;;;;;;;14.33;14.33;;;;;17.86;52.52;101850.47;2106451;27;48662;-64
2022/04/15 03:16:46;;;;;;;;;13.50;13.50;;;;;17.86;52.22;101853.16;2112603;27;48108;-61
2022/04/15 03:17:46;;;;;;;;;13.00;11.33;;;;;17.85;52.52;101852.25;2106206;27;47893;-61
2022/04/15 03:18:47;;;;;;;;;15.25;14.25;;;;;17.87;52.54;101857.59;2105694;27;47539;-62
2022/04/15 03:19:47;;;;;;;;;15.00;15.00;;;;;17.87;52.49;101853.09;2110693;27;47171;-61
2022/04/15 03:20:47;;;;;;;;;11.67;11.00;;;;;17.85;52.58;101849.59;2104402;27;47529;-61
2022/04/15 03:21:48;;;;;;;;;12.67;12.67;;;;;17.85;52.41;101860.31;2104131;28;47319;-61
2022/04/15 03:22:48;;;;;;;;;10.00;10.00;;;;;17.86;52.63;101855.84;2104334;27;47822;-61
2022/04/15 03:23:49;;;;;;;;;13.00;13.00;;;;;17.86;53.07;101853.16;2106774;27;47625;-61
2022/04/15 03:24:52;;;;;;;;;9.67;9.67;;;;;17.87;52.65;101854.91;2104818;27;47673;-61
2022/04/15 03:25:53;;;;;;;;;15.00;14.50;;;;;17.87;52.67;101858.47;2110856;27;47499;-61
2022/04/15 03:26:53;;;;;;;;;14.00;13.00;;;;;17.87;52.44;101854.91;2109525;27;48200;-60
2022/04/15 03:27:53;;;;;;;;;12.00;12.00;;;;;17.85;52.52;101857.63;2114592;27;47318;-61
2022/04/15 03:28:54;;;;;;;;;18.25;16.50;;;;;17.85;52.69;101857.63;2112548;27;47661;-63
2022/04/15 03:29:54;;;;;;;;;15.67;11.67;;;;;17.83;52.74;101864.88;2105864;27;48196;-61
2022/04/15 03:30:55;;;;;;;;;15.00;15.00;;;;;17.84;52.76;101860.38;2111050;27;47371;-60
2022/04/15 03:31:55;;;;;;;;;14.67;14.67;;;;;17.83;52.55;101859.50;2105914;27;47498;-62
2022/04/15 03:32:55;;;;;;;;;15.00;15.00;;;;;17.81;52.38;101855.13;2104304;27;47556;-61
2022/04/15 03:33:56;;;;;;;;;27.75;26.25;;;;;17.80;52.66;101856.06;2108879;27;47524;-62
2022/04/15 03:34:57;;;;;;;;;48.25;40.25;;;;;17.79;52.61;101855.19;2105812;27;47750;-61
2022/04/15 03:35:58;;;;;;;;;49.00;39.80;;;;;17.79;52.73;101860.53;2109097;27;47617;-62
2022/04/15 03:36:58;;;;;;;;;32.00;30.50;;;;;17.78;52.86;101860.56;2107631;27;46426;-61
2022/04/15 03:37:58;;;;;;;;;27.00;25.25;;;;;17.77;53.14;101861.50;2104115;28;47385;-61
2022/04/15 03:38:59;;;;;;;;;21.00;20.00;;;;;17.78;53.06;101857.88;2104037;27;47724;-61
2022/04/15 03:39:59;;;;;;;;;23.50;19.50;;;;;17.78;52.78;101860.56;2105857;27;47788;-61
2022/04/15 03:41:00;;;;;;;;;18.33;14.33;;;;;17.77;53.00;101859.69;2103987;28;47853;-62
2022/04/15 03:42:01;;;;;;;;;15.25;15.00;;;;;17.78;53.04;101858.75;2112202;27;47522;-61
2022/04/15 03:43:03;;;;;;;;;15.50;15.25;;;;;17.78;53.14;101860.56;2107361;27;47288;-61
2022/04/15 03:44:04;;;;;;;;;17.00;17.00;;;;;17.77;52.81;101861.50;2106111;27;47365;-62
2022/04/15 03:45:05;;;;;;;;;18.00;17.40;;;;;17.76;53.09;101866.00;2108542;27;47422;-61
2022/04/15 03:46:06;;;;;;;;;15.00;15.00;;;;;17.77;52.87;101856.13;2105697;27;46740;-61
2022/04/15 03:47:07;;;;;;;;;18.50;17.25;;;;;17.75;52.59;101858.00;2111458;27;47328;-61
2022/04/15 03:48:07;;;;;;;;;16.25;15.25;;;;;17.75;53.06;101856.19;2091086;28;47768;-61
2022/04/15 03:49:08;;;;;;;;;18.25;17.50;;;;;17.74;53.01;101867.84;2090549;28;47292;-61
2022/04/15 03:50:10;;;;;;;;;18.00;18.00;;;;;17.73;53.10;101863.41;2089384;28;47487;-60
2022/04/15 03:51:11;;;;;;;;;17.80;17.00;;;;;17.73;53.10;101866.09;2090235;28;47699;-61
2022/04/15 03:52:11;;;;;;;;;18.00;15.80;;;;;17.72;52.88;101867.03;2092443;28;48280;-61
2022/04/15 03:53:12;;;;;;;;;19.00;16.75;;;;;17.73;53.09;101862.53;2093357;28;47634;-61
2022/04/15 03:54:12;;;;;;;;;19.00;18.00;;;;;17.71;53.03;101862.59;2088578;28;47155;-61
2022/04/15 03:55:18;;;;;;;;;16.75;16.25;;;;;17.71;53.16;101862.59;2088671;28;47599;-60
2022/04/15 03:56:18;;;;;;;;;17.00;16.20;;;;;17.72;53.17;101866.16;2090756;28;47481;-60
2022/04/15 03:57:18;;;;;;;;;12.50;12.50;;;;;17.71;53.18;101865.28;2089365;28;47810;-61
2022/04/15 03:58:19;;;;;;;;;22.50;22.25;;;;;17.72;53.03;101868.84;2078613;28;47041;-60
2022/04/15 03:59:20;;;;;;;;;18.25;16.25;;;;;17.72;53.16;101871.53;2084358;28;48406;-61
2022/04/15 04:00:22;;;;;;;;;20.00;19.75;;;;;17.71;53.00;101877.81;2089187;28;47536;-61
2022/04/15 04:01:24;;;;;;;;;18.60;18.60;;;;;17.70;53.16;101868.03;2086992;28;47927;-60
2022/04/15 04:02:25;;;;;;;;;16.20;16.20;;;;;17.69;53.22;101868.94;2092594;28;47761;-61
2022/04/15 04:03:25;;;;;;;;;18.00;18.00;;;;;17.68;52.95;101864.47;2088295;28;47511;-61
2022/04/15 04:04:25;;;;;;;;;21.50;21.25;;;;;17.67;52.99;101868.97;2087523;28;47334;-61
2022/04/15 04:05:26;;;;;;;;;16.50;15.00;;;;;17.67;53.42;101879.72;2087048;28;48093;-60
2022/04/15 04:06:26;;;;;;;;;17.75;17.75;;;;;17.67;53.25;101866.28;2088585;28;47629;-61
2022/04/15 04:07:27;;;;;;;;;19.50;17.50;;;;;17.67;53.17;101870.78;2091986;28;48085;-63
2022/04/15 04:08:28;;;;;;;;;16.00;15.75;;;;;17.67;53.31;101876.16;2089972;28;47636;-61
2022/04/15 04:09:29;;;;;;;;;19.20;19.20;;;;;17.67;53.43;101879.72;2083714;28;47546;-61
2022/04/15 04:10:29;;;;;;;;;16.75;16.75;;;;;17.67;53.36;101874.34;2090577;28;47787;-61
2022/04/15 04:11:29;;;;;;;;;17.75;17.75;;;;;17.67;53.17;101878.84;2089476;28;47591;-60
2022/04/15 04:12:34;;;;;;;;;18.50;18.50;;;;;17.67;53.51;101878.84;2087816;28;47353;-61
2022/04/15 04:13:34;;;;;;;;;21.00;16.40;;;;;17.67;53.28;101879.72;2086095;28;47784;-61
2022/04/15 04:14:35;;;;;;;;;12.75;12.50;;;;;17.65;53.06;101874.38;2085738;28;48459;-62
2022/04/15 04:15:35;;;;;;;;;16.75;16.25;;;;;17.66;53.25;101880.63;2087794;28;47630;-60
2022/04/15 04:16:36;;;;;;;;;16.75;16.50;;;;;17.67;53.12;101881.53;2089946;28;46682;-61
2022/04/15 04:17:36;;;;;;;;;9.25;9.25;;;;;17.65;53.27;101879.72;2087058;28;47722;-62
2022/04/15 04:18:37;;;;;;;;;20.25;15.00;;;;;17.65;53.44;101877.03;2087287;28;47403;-62
2022/04/15 04:19:37;;;;;;;;;20.50;19.75;;;;;17.65;53.44;101878.84;2070771;28;47828;-62
2022/04/15 04:20:38;;;;;;;;;17.50;17.50;;;;;17.64;53.58;101877.97;2093584;28;47468;-62
2022/04/15 04:21:38;;;;;;;;;14.75;14.75;;;;;17.64;53.29;101880.66;2087287;28;47809;-62
2022/04/15 04:22:39;;;;;;;;;18.00;18.00;;;;;17.65;53.44;101884.22;2088094;28;47832;-62
2022/04/15 04:23:40;;;;;;;;;20.00;18.80;;;;;17.63;53.46;101884.28;2105413;28;47842;-61
2022/04/15 04:24:40;;;;;;;;;16.75;15.25;;;;;17.63;53.34;101881.59;2105156;28;47875;-61
2022/04/15 04:25:41;;;;;;;;;21.75;21.75;;;;;17.63;53.61;101884.28;2105302;28;47607;-60
2022/04/15 04:26:41;;;;;;;;;21.75;20.75;;;;;17.63;53.48;101888.78;2089200;28;47481;-61
2022/04/15 04:27:42;;;;;;;;;23.50;22.25;;;;;17.63;53.55;101886.97;2087412;28;47927;-61
2022/04/15 04:28:43;;;;;;;;;22.60;22.60;;;;;17.64;53.41;101885.16;2102791;28;47932;-61
2022/04/15 04:29:43;;;;;;;;;22.75;19.75;;;;;17.64;53.35;101887.84;2098990;27;47852;-60
2022/04/15 04:30:44;;;;;;;;;24.50;24.50;;;;;17.64;53.65;101883.34;2103683;28;47555;-61
2022/04/15 04:31:44;;;;;;;;;26.50;24.00;;;;;17.64;53.39;101887.84;2078934;28;47389;-61
2022/04/15 04:32:52;;;;;;;;;24.00;24.00;;;;;17.63;53.77;101889.66;2078864;28;47871;-61
2022/04/15 04:33:52;;;;;;;;;28.00;27.20;;;;;17.62;53.41;101882.53;2096792;28;47855;-61
2022/04/15 04:34:53;;;;;;;;;29.00;28.00;;;;;17.61;53.40;101883.44;2103441;28;47108;-61
2022/04/15 04:35:53;;;;;;;;;25.00;23.50;;;;;17.60;53.80;101892.44;2076718;28;47180;-61
2022/04/15 04:36:53;;;;;;;;;25.00;24.25;;;;;17.60;53.54;101899.63;2070965;28;47142;-61
2022/04/15 04:37:54;;;;;;;;;25.00;22.50;;;;;17.58;53.45;101894.31;2078775;28;48118;-61
2022/04/15 04:38:54;;;;;;;;;26.25;25.25;;;;;17.58;53.49;101896.09;2078961;28;47376;-62